sensor_id;sensor_type;location;lat;lon;timestamp;pressure;altitude;pressure_sealevel;temperature;humidity
46724;BME280;32463;48.298;11.620;2024-01-27T00:01:24;97862.09;;;0.78;100.00
46724;BME280;32463;48.298;11.620;2024-01-27T00:04:10;97862.81;;;0.59;100.00
46724;BME280;32463;48.298;11.620;2024-01-27T00:06:57;97855.56;;;0.71;100.00
46724;BME280;32463;48.298;11.620;2024-01-27T00:09:44;97850.31;;;0.53;100.00
46724;BME280;32463;48.298;11.620;2024-01-27T00:12:31;97863.34;;;0.67;100.00
46724;BME280;32463;48.298;11.620;2024-01-27T00:15:18;97857.34;;;0.68;100.00
46724;BME280;32463;48.298;11.620;2024-01-27T00:18:04;97860.44;;;0.77;100.00
46724;BME280;32463;48.298;11.620;2024-01-27T00:20:51;97852.53;;;0.83;100.00
46724;BME280;32463;48.298;11.620;2024-01-27T00:23:38;97859.47;;;0.79;100.00
46724;BME280;32463;48.298;11.620;2024-01-27T00:26:26;97856.88;;;0.81;100.00
46724;BME280;32463;48.298;11.620;2024-01-27T00:29:13;97851.13;;;0.96;100.00
46724;BME280;32463;48.298;11.620;2024-01-27T00:32:01;97853.25;;;1.07;100.00
46724;BME280;32463;48.298;11.620;2024-01-27T00:34:48;97856.44;;;1.12;100.00
46724;BME280;32463;48.298;11.620;2024-01-27T00:37:34;97869.41;;;1.07;100.00
46724;BME280;32463;48.298;11.620;2024-01-27T00:40:22;97859.84;;;1.12;100.00
46724;BME280;32463;48.298;11.620;2024-01-27T00:43:09;97864.53;;;1.01;100.00
46724;BME280;32463;48.298;11.620;2024-01-27T00:45:55;97875.00;;;0.95;100.00
46724;BME280;32463;48.298;11.620;2024-01-27T00:48:43;97866.56;;;0.93;100.00
46724;BME280;32463;48.298;11.620;2024-01-27T00:51:30;97865.16;;;0.86;100.00
46724;BME280;32463;48.298;11.620;2024-01-27T00:54:18;97858.53;;;0.82;100.00
46724;BME280;32463;48.298;11.620;2024-01-27T00:57:05;97858.88;;;0.73;100.00
46724;BME280;32463;48.298;11.620;2024-01-27T00:59:52;97864.81;;;0.73;100.00
46724;BME280;32463;48.298;11.620;2024-01-27T01:02:40;97870.03;;;0.70;100.00
46724;BME280;32463;48.298;11.620;2024-01-27T01:05:28;97866.19;;;0.82;100.00
46724;BME280;32463;48.298;11.620;2024-01-27T01:08:15;97862.09;;;0.78;100.00
46724;BME280;32463;48.298;11.620;2024-01-27T01:11:02;97860.31;;;0.80;100.00
46724;BME280;32463;48.298;11.620;2024-01-27T01:13:49;97861.91;;;0.82;100.00
46724;BME280;32463;48.298;11.620;2024-01-27T01:16:37;97862.75;;;0.83;100.00
46724;BME280;32463;48.298;11.620;2024-01-27T01:19:25;97871.88;;;0.88;100.00
46724;BME280;32463;48.298;11.620;2024-01-27T01:22:12;97881.06;;;0.92;100.00
46724;BME280;32463;48.298;11.620;2024-01-27T01:24:59;97877.53;;;0.75;100.00
46724;BME280;32463;48.298;11.620;2024-01-27T01:27:46;97882.41;;;0.59;100.00
46724;BME280;32463;48.298;11.620;2024-01-27T01:30:35;97884.13;;;0.58;100.00
46724;BME280;32463;48.298;11.620;2024-01-27T01:33:23;97887.91;;;0.48;100.00
46724;BME280;32463;48.298;11.620;2024-01-27T01:36:10;97878.47;;;0.50;100.00
46724;BME280;32463;48.298;11.620;2024-01-27T01:38:57;97883.75;;;0.46;100.00
46724;BME280;32463;48.298;11.620;2024-01-27T01:41:45;97880.25;;;0.48;100.00
46724;BME280;32463;48.298;11.620;2024-01-27T01:44:31;97884.31;;;0.54;100.00
46724;BME280;32463;48.298;11.620;2024-01-27T01:47:18;97881.16;;;0.47;100.00
46724;BME280;32463;48.298;11.620;2024-01-27T01:50:06;97885.59;;;0.42;100.00
46724;BME280;32463;48.298;11.620;2024-01-27T01:52:53;97890.47;;;0.48;100.00
46724;BME280;32463;48.298;11.620;2024-01-27T01:55:40;97897.34;;;0.46;100.00
46724;BME280;32463;48.298;11.620;2024-01-27T01:58:27;97893.19;;;0.44;100.00
46724;BME280;32463;48.298;11.620;2024-01-27T02:01:19;97897.13;;;0.52;100.00
46724;BME280;32463;48.298;11.620;2024-01-27T02:04:06;97907.44;;;0.49;100.00
46724;BME280;32463;48.298;11.620;2024-01-27T02:06:53;97909.31;;;0.44;100.00
46724;BME280;32463;48.298;11.620;2024-01-27T02:09:40;97919.75;;;0.38;100.00
46724;BME280;32463;48.298;11.620;2024-01-27T02:12:27;97930.94;;;0.34;100.00
46724;BME280;32463;48.298;11.620;2024-01-27T02:15:14;97924.84;;;0.38;100.00
46724;BME280;32463;48.298;11.620;2024-01-27T02:18:01;97933.38;;;0.37;100.00
46724;BME280;32463;48.298;11.620;2024-01-27T02:20:47;97932.19;;;0.24;100.00
46724;BME280;32463;48.298;11.620;2024-01-27T02:23:34;97941.06;;;0.14;100.00
46724;BME280;32463;48.298;11.620;2024-01-27T02:26:21;97937.84;;;0.09;100.00
46724;BME280;32463;48.298;11.620;2024-01-27T02:29:08;97931.28;;;0.02;100.00
46724;BME280;32463;48.298;11.620;2024-01-27T02:31:55;97927.84;;;0.03;100.00
46724;BME280;32463;48.298;11.620;2024-01-27T02:34:42;97925.91;;;0.09;100.00
46724;BME280;32463;48.298;11.620;2024-01-27T02:37:29;97926.59;;;0.14;100.00
46724;BME280;32463;48.298;11.620;2024-01-27T02:40:16;97928.97;;;0.19;100.00
46724;BME280;32463;48.298;11.620;2024-01-27T02:43:03;97930.75;;;0.17;100.00
46724;BME280;32463;48.298;11.620;2024-01-27T02:45:49;97927.63;;;0.09;100.00
46724;BME280;32463;48.298;11.620;2024-01-27T02:48:36;97932.84;;;0.06;100.00
46724;BME280;32463;48.298;11.620;2024-01-27T02:51:26;97926.69;;;0.11;100.00
46724;BME280;32463;48.298;11.620;2024-01-27T02:54:13;97927.53;;;0.12;100.00
46724;BME280;32463;48.298;11.620;2024-01-27T02:56:59;97921.72;;;0.08;100.00
46724;BME280;32463;48.298;11.620;2024-01-27T02:59:46;97933.56;;;0.09;100.00
46724;BME280;32463;48.298;11.620;2024-01-27T03:02:33;97939.72;;;0.04;100.00
46724;BME280;32463;48.298;11.620;2024-01-27T03:05:20;97951.81;;;-0.02;100.00
46724;BME280;32463;48.298;11.620;2024-01-27T03:08:07;97948.38;;;-0.01;100.00
46724;BME280;32463;48.298;11.620;2024-01-27T03:10:53;97955.13;;;0.00;100.00
46724;BME280;32463;48.298;11.620;2024-01-27T03:13:40;97954.63;;;-0.09;100.00
46724;BME280;32463;48.298;11.620;2024-01-27T03:16:30;97956.50;;;-0.14;100.00
46724;BME280;32463;48.298;11.620;2024-01-27T03:19:18;97962.94;;;-0.29;100.00
46724;BME280;32463;48.298;11.620;2024-01-27T03:22:04;97960.56;;;-0.33;100.00
46724;BME280;32463;48.298;11.620;2024-01-27T03:24:51;97965.03;;;-0.40;100.00
46724;BME280;32463;48.298;11.620;2024-01-27T03:27:40;97971.13;;;-0.44;100.00
46724;BME280;32463;48.298;11.620;2024-01-27T03:30:27;97973.06;;;-0.52;100.00
46724;BME280;32463;48.298;11.620;2024-01-27T03:33:14;97977.72;;;-0.63;100.00
46724;BME280;32463;48.298;11.620;2024-01-27T03:36:01;97983.81;;;-0.69;100.00
46724;BME280;32463;48.298;11.620;2024-01-27T03:38:48;97977.44;;;-0.82;100.00
46724;BME280;32463;48.298;11.620;2024-01-27T03:41:35;97998.81;;;-0.88;100.00
46724;BME280;32463;48.298;11.620;2024-01-27T03:44:21;97991.97;;;-0.86;100.00
46724;BME280;32463;48.298;11.620;2024-01-27T03:47:08;97995.34;;;-0.85;100.00
46724;BME280;32463;48.298;11.620;2024-01-27T03:49:55;98004.13;;;-0.94;100.00
46724;BME280;32463;48.298;11.620;2024-01-27T03:52:42;98007.25;;;-0.86;100.00
46724;BME280;32463;48.298;11.620;2024-01-27T03:55:28;98010.50;;;-0.81;100.00
46724;BME280;32463;48.298;11.620;2024-01-27T03:58:16;98013.75;;;-0.76;100.00
46724;BME280;32463;48.298;11.620;2024-01-27T04:01:03;98013.00;;;-0.79;100.00
46724;BME280;32463;48.298;11.620;2024-01-27T04:03:50;98013.75;;;-0.76;100.00
46724;BME280;32463;48.298;11.620;2024-01-27T04:06:40;98011.97;;;-0.74;100.00
46724;BME280;32463;48.298;11.620;2024-01-27T04:09:27;98006.75;;;-0.69;100.00
46724;BME280;32463;48.298;11.620;2024-01-27T04:12:14;98003.56;;;-0.76;100.00
46724;BME280;32463;48.298;11.620;2024-01-27T04:15:01;98001.88;;;-0.77;100.00
46724;BME280;32463;48.298;11.620;2024-01-27T04:17:47;97998.66;;;-0.82;100.00
46724;BME280;32463;48.298;11.620;2024-01-27T04:20:34;98010.78;;;-0.90;100.00
46724;BME280;32463;48.298;11.620;2024-01-27T04:23:21;98012.09;;;-1.05;100.00
46724;BME280;32463;48.298;11.620;2024-01-27T04:26:08;98008.63;;;-1.02;100.00
46724;BME280;32463;48.298;11.620;2024-01-27T04:28:56;98017.03;;;-1.00;100.00
46724;BME280;32463;48.298;11.620;2024-01-27T04:31:42;98008.28;;;-0.91;100.00
46724;BME280;32463;48.298;11.620;2024-01-27T04:34:31;98014.19;;;-0.91;100.00
46724;BME280;32463;48.298;11.620;2024-01-27T04:37:18;98017.75;;;-0.95;100.00
46724;BME280;32463;48.298;11.620;2024-01-27T04:40:05;98015.88;;;-0.90;100.00
46724;BME280;32463;48.298;11.620;2024-01-27T04:42:53;98025.13;;;-0.87;100.00
46724;BME280;32463;48.298;11.620;2024-01-27T04:45:39;98020.03;;;-0.87;100.00
46724;BME280;32463;48.298;11.620;2024-01-27T04:48:26;98021.25;;;-0.99;100.00
46724;BME280;32463;48.298;11.620;2024-01-27T04:51:13;98026.44;;;-1.02;100.00
46724;BME280;32463;48.298;11.620;2024-01-27T04:54:00;98032.06;;;-1.20;100.00
46724;BME280;32463;48.298;11.620;2024-01-27T04:56:47;98028.03;;;-1.27;100.00
46724;BME280;32463;48.298;11.620;2024-01-27T04:59:34;98035.69;;;-1.27;100.00
46724;BME280;32463;48.298;11.620;2024-01-27T05:02:20;98032.25;;;-1.26;100.00
46724;BME280;32463;48.298;11.620;2024-01-27T05:05:08;98030.50;;;-1.24;100.00
46724;BME280;32463;48.298;11.620;2024-01-27T05:07:54;98032.06;;;-1.20;100.00
46724;BME280;32463;48.298;11.620;2024-01-27T05:10:41;98035.59;;;-1.24;100.00
46724;BME280;32463;48.298;11.620;2024-01-27T05:13:28;98032.34;;;-1.29;100.00
46724;BME280;32463;48.298;11.620;2024-01-27T05:16:15;98035.38;;;-1.18;100.00
46724;BME280;32463;48.298;11.620;2024-01-27T05:19:02;98040.38;;;-1.15;100.00
46724;BME280;32463;48.298;11.620;2024-01-27T05:21:48;98036.19;;;-1.16;100.00
46724;BME280;32463;48.298;11.620;2024-01-27T05:24:35;98045.47;;;-1.15;100.00
46724;BME280;32463;48.298;11.620;2024-01-27T05:27:22;98047.06;;;-1.11;100.00
46724;BME280;32463;48.298;11.620;2024-01-27T05:30:09;98054.88;;;-1.17;100.00
46724;BME280;32463;48.298;11.620;2024-01-27T05:32:56;98054.94;;;-1.20;100.00
46724;BME280;32463;48.298;11.620;2024-01-27T05:35:42;98067.88;;;-1.26;100.00
46724;BME280;32463;48.298;11.620;2024-01-27T05:38:29;98059.78;;;-1.11;100.00
46724;BME280;32463;48.298;11.620;2024-01-27T05:41:17;98065.22;;;-0.94;100.00
46724;BME280;32463;48.298;11.620;2024-01-27T05:44:04;98064.75;;;-1.07;100.00
46724;BME280;32463;48.298;11.620;2024-01-27T05:46:51;98065.66;;;-1.09;100.00
46724;BME280;32463;48.298;11.620;2024-01-27T05:49:37;98064.38;;;-1.22;100.00
46724;BME280;32463;48.298;11.620;2024-01-27T05:52:24;98083.16;;;-1.26;100.00
46724;BME280;32463;48.298;11.620;2024-01-27T05:55:11;98084.59;;;-1.19;100.00
46724;BME280;32463;48.298;11.620;2024-01-27T05:57:58;98078.66;;;-1.18;100.00
46724;BME280;32463;48.298;11.620;2024-01-27T06:00:45;98089.97;;;-1.28;100.00
46724;BME280;32463;48.298;11.620;2024-01-27T06:03:32;98094.19;;;-1.27;100.00
46724;BME280;32463;48.298;11.620;2024-01-27T06:06:19;98091.81;;;-1.33;100.00
46724;BME280;32463;48.298;11.620;2024-01-27T06:09:07;98102.06;;;-1.37;100.00
46724;BME280;32463;48.298;11.620;2024-01-27T06:11:59;98105.72;;;-1.47;100.00
46724;BME280;32463;48.298;11.620;2024-01-27T06:14:46;98107.91;;;-1.64;100.00
46724;BME280;32463;48.298;11.620;2024-01-27T06:17:33;98113.78;;;-1.62;100.00
46724;BME280;32463;48.298;11.620;2024-01-27T06:20:20;98123.38;;;-1.73;100.00
46724;BME280;32463;48.298;11.620;2024-01-27T06:23:07;98123.44;;;-1.75;100.00
46724;BME280;32463;48.298;11.620;2024-01-27T06:25:54;98120.53;;;-1.93;100.00
46724;BME280;32463;48.298;11.620;2024-01-27T06:28:41;98121.38;;;-1.93;100.00
46724;BME280;32463;48.298;11.620;2024-01-27T06:31:28;98118.78;;;-1.91;100.00
46724;BME280;32463;48.298;11.620;2024-01-27T06:34:15;98114.59;;;-1.94;100.00
46724;BME280;32463;48.298;11.620;2024-01-27T06:37:02;98126.53;;;-1.96;100.00
46724;BME280;32463;48.298;11.620;2024-01-27T06:39:49;98130.78;;;-1.96;100.00
46724;BME280;32463;48.298;11.620;2024-01-27T06:42:36;98132.44;;;-1.95;100.00
46724;BME280;32463;48.298;11.620;2024-01-27T06:45:23;98126.66;;;-2.02;100.00
46724;BME280;32463;48.298;11.620;2024-01-27T06:48:09;98132.88;;;-2.14;100.00
46724;BME280;32463;48.298;11.620;2024-01-27T06:50:56;98139.84;;;-2.22;100.00
46724;BME280;32463;48.298;11.620;2024-01-27T06:53:43;98139.94;;;-2.25;100.00
46724;BME280;32463;48.298;11.620;2024-01-27T06:56:30;98133.84;;;-2.18;100.00
46724;BME280;32463;48.298;11.620;2024-01-27T06:59:16;98136.44;;;-2.21;100.00
46724;BME280;32463;48.298;11.620;2024-01-27T07:02:03;98144.88;;;-2.19;100.00
46724;BME280;32463;48.298;11.620;2024-01-27T07:04:50;98135.41;;;-2.14;100.00
46724;BME280;32463;48.298;11.620;2024-01-27T07:07:37;98139.47;;;-2.07;100.00
46724;BME280;32463;48.298;11.620;2024-01-27T07:10:24;98142.59;;;-1.95;100.00
46724;BME280;32463;48.298;11.620;2024-01-27T07:13:11;98138.88;;;-1.82;100.00
46724;BME280;32463;48.298;11.620;2024-01-27T07:15:59;98138.63;;;-1.73;100.00
46724;BME280;32463;48.298;11.620;2024-01-27T07:18:45;98153.53;;;-1.58;100.00
46724;BME280;32463;48.298;11.620;2024-01-27T07:21:32;98156.00;;;-1.55;100.00
46724;BME280;32463;48.298;11.620;2024-01-27T07:24:19;98149.75;;;-1.45;100.00
46724;BME280;32463;48.298;11.620;2024-01-27T07:27:06;98147.03;;;-1.37;100.00
46724;BME280;32463;48.298;11.620;2024-01-27T07:29:52;98145.94;;;-1.28;100.00
46724;BME280;32463;48.298;11.620;2024-01-27T07:32:39;98151.59;;;-1.19;100.00
46724;BME280;32463;48.298;11.620;2024-01-27T07:35:26;98151.19;;;-0.74;100.00
46724;BME280;32463;48.298;11.620;2024-01-27T07:38:13;98153.63;;;-0.42;100.00
46724;BME280;32463;48.298;11.620;2024-01-27T07:41:00;98153.19;;;-0.28;100.00
46724;BME280;32463;48.298;11.620;2024-01-27T07:43:47;98151.81;;;-0.38;100.00
46724;BME280;32463;48.298;11.620;2024-01-27T07:46:33;98155.41;;;-0.45;100.00
46724;BME280;32463;48.298;11.620;2024-01-27T07:49:20;98145.13;;;-0.42;100.00
46724;BME280;32463;48.298;11.620;2024-01-27T07:52:07;98148.66;;;-0.46;100.00
46724;BME280;32463;48.298;11.620;2024-01-27T07:54:54;98145.22;;;-0.45;100.00
46724;BME280;32463;48.298;11.620;2024-01-27T07:57:41;98149.41;;;-0.43;100.00
46724;BME280;32463;48.298;11.620;2024-01-27T08:00:27;98151.91;;;-0.41;100.00
46724;BME280;32463;48.298;11.620;2024-01-27T08:03:14;98151.81;;;-0.38;100.00
46724;BME280;32463;48.298;11.620;2024-01-27T08:06:05;98145.44;;;-0.25;100.00
46724;BME280;32463;48.298;11.620;2024-01-27T08:08:54;98156.31;;;-0.20;100.00
46724;BME280;32463;48.298;11.620;2024-01-27T08:11:41;98151.75;;;-0.09;100.00
46724;BME280;32463;48.298;11.620;2024-01-27T08:14:28;98147.44;;;-0.07;100.00
46724;BME280;32463;48.298;11.620;2024-01-27T08:17:16;98154.88;;;-0.01;100.00
46724;BME280;32463;48.298;11.620;2024-01-27T08:20:02;98160.56;;;0.08;100.00
46724;BME280;32463;48.298;11.620;2024-01-27T08:22:49;98161.25;;;0.13;100.00
46724;BME280;32463;48.298;11.620;2024-01-27T08:25:36;98160.16;;;0.20;100.00
46724;BME280;32463;48.298;11.620;2024-01-27T08:28:24;98162.47;;;0.27;100.00
46724;BME280;32463;48.298;11.620;2024-01-27T08:31:11;98171.41;;;0.39;100.00
46724;BME280;32463;48.298;11.620;2024-01-27T08:33:58;98169.44;;;0.47;100.00
46724;BME280;32463;48.298;11.620;2024-01-27T08:36:45;98171.47;;;0.62;100.00
46724;BME280;32463;48.298;11.620;2024-01-27T08:39:32;98173.81;;;0.68;100.00
46724;BME280;32463;48.298;11.620;2024-01-27T08:42:18;98182.06;;;0.77;100.00
46724;BME280;32463;48.298;11.620;2024-01-27T08:45:06;98169.03;;;0.84;100.00
46724;BME280;32463;48.298;11.620;2024-01-27T08:47:53;98171.69;;;1.05;100.00
46724;BME280;32463;48.298;11.620;2024-01-27T08:50:40;98163.66;;;1.15;100.00
46724;BME280;32463;48.298;11.620;2024-01-27T08:53:26;98166.88;;;1.20;100.00
46724;BME280;32463;48.298;11.620;2024-01-27T08:56:13;98168.78;;;1.37;100.00
46724;BME280;32463;48.298;11.620;2024-01-27T08:59:00;98180.47;;;1.66;100.00
46724;BME280;32463;48.298;11.620;2024-01-27T09:01:47;98182.38;;;1.61;100.00
46724;BME280;32463;48.298;11.620;2024-01-27T09:04:33;98176.47;;;1.82;100.00
46724;BME280;32463;48.298;11.620;2024-01-27T09:07:20;98187.50;;;2.05;100.00
46724;BME280;32463;48.298;11.620;2024-01-27T09:10:07;98185.34;;;2.16;100.00
46724;BME280;32463;48.298;11.620;2024-01-27T09:12:54;98183.31;;;2.24;100.00
46724;BME280;32463;48.298;11.620;2024-01-27T09:15:41;98177.19;;;2.48;100.00
46724;BME280;32463;48.298;11.620;2024-01-27T09:18:28;98177.13;;;2.70;100.00
46724;BME280;32463;48.298;11.620;2024-01-27T09:21:15;98177.38;;;3.23;100.00
46724;BME280;32463;48.298;11.620;2024-01-27T09:24:05;98179.16;;;3.59;100.00
46724;BME280;32463;48.298;11.620;2024-01-27T09:26:52;98181.34;;;3.85;100.00
46724;BME280;32463;48.298;11.620;2024-01-27T09:29:39;98173.25;;;3.94;100.00
46724;BME280;32463;48.298;11.620;2024-01-27T09:32:26;98173.19;;;4.13;100.00
46724;BME280;32463;48.298;11.620;2024-01-27T09:35:13;98181.19;;;4.24;100.00
46724;BME280;32463;48.298;11.620;2024-01-27T09:37:59;98184.59;;;4.59;100.00
46724;BME280;32463;48.298;11.620;2024-01-27T09:40:46;98184.56;;;4.94;100.00
46724;BME280;32463;48.298;11.620;2024-01-27T09:43:34;98189.00;;;5.23;100.00
46724;BME280;32463;48.298;11.620;2024-01-27T09:46:21;98200.28;;;5.69;100.00
46724;BME280;32463;48.298;11.620;2024-01-27T09:49:08;98202.75;;;6.34;100.00
46724;BME280;32463;48.298;11.620;2024-01-27T09:51:57;98208.34;;;6.56;100.00
46724;BME280;32463;48.298;11.620;2024-01-27T09:54:44;98206.16;;;6.64;100.00
46724;BME280;32463;48.298;11.620;2024-01-27T09:57:31;98207.53;;;7.28;100.00
46724;BME280;32463;48.298;11.620;2024-01-27T10:00:18;98212.28;;;7.06;100.00
46724;BME280;32463;48.298;11.620;2024-01-27T10:03:05;98210.38;;;7.52;100.00
46724;BME280;32463;48.298;11.620;2024-01-27T10:05:56;98204.91;;;7.71;100.00
46724;BME280;32463;48.298;11.620;2024-01-27T10:08:52;98205.81;;;7.84;100.00
46724;BME280;32463;48.298;11.620;2024-01-27T10:11:43;98207.69;;;8.36;96.74
46724;BME280;32463;48.298;11.620;2024-01-27T10:14:41;98196.81;;;9.21;88.32
46724;BME280;32463;48.298;11.620;2024-01-27T10:17:30;98194.34;;;9.07;84.55
46724;BME280;32463;48.298;11.620;2024-01-27T10:20:21;98196.38;;;9.53;79.28
46724;BME280;32463;48.298;11.620;2024-01-27T10:23:11;98195.72;;;9.74;75.17
46724;BME280;32463;48.298;11.620;2024-01-27T10:25:58;98193.81;;;9.89;71.92
46724;BME280;32463;48.298;11.620;2024-01-27T10:28:53;98185.47;;;10.68;69.74
46724;BME280;32463;48.298;11.620;2024-01-27T10:31:40;98186.75;;;10.15;68.24
46724;BME280;32463;48.298;11.620;2024-01-27T10:34:27;98189.19;;;11.33;66.10
46724;BME280;32463;48.298;11.620;2024-01-27T10:37:14;98173.00;;;11.96;62.24
46724;BME280;32463;48.298;11.620;2024-01-27T10:45:43;98170.38;;;12.07;55.71
46724;BME280;32463;48.298;11.620;2024-01-27T10:48:30;98160.66;;;13.04;55.62
46724;BME280;32463;48.298;11.620;2024-01-27T10:51:23;98146.31;;;12.89;54.38
46724;BME280;32463;48.298;11.620;2024-01-27T10:54:23;98149.28;;;13.05;54.34
46724;BME280;32463;48.298;11.620;2024-01-27T10:57:10;98144.53;;;13.90;51.84
46724;BME280;32463;48.298;11.620;2024-01-27T11:00:00;98134.69;;;13.13;51.37
46724;BME280;32463;48.298;11.620;2024-01-27T11:02:49;98137.53;;;12.06;51.25
46724;BME280;32463;48.298;11.620;2024-01-27T11:05:39;98145.75;;;11.79;54.00
46724;BME280;32463;48.298;11.620;2024-01-27T11:08:26;98147.41;;;12.44;53.44
46724;BME280;32463;48.298;11.620;2024-01-27T11:11:16;98136.59;;;12.91;51.94
46724;BME280;32463;48.298;11.620;2024-01-27T11:14:03;98129.59;;;11.31;54.72
46724;BME280;32463;48.298;11.620;2024-01-27T11:16:57;98125.72;;;12.02;52.83
46724;BME280;32463;48.298;11.620;2024-01-27T11:19:45;98133.34;;;10.60;55.92
46724;BME280;32463;48.298;11.620;2024-01-27T11:22:32;98120.59;;;12.95;53.69
46724;BME280;32463;48.298;11.620;2024-01-27T11:25:19;98119.47;;;11.28;55.27
46724;BME280;32463;48.298;11.620;2024-01-27T11:28:14;98120.72;;;12.10;53.06
46724;BME280;32463;48.298;11.620;2024-01-27T11:31:05;98129.03;;;12.88;53.17
46724;BME280;32463;48.298;11.620;2024-01-27T11:33:52;98125.09;;;13.44;49.79
46724;BME280;32463;48.298;11.620;2024-01-27T11:36:39;98125.63;;;14.27;47.24
46724;BME280;32463;48.298;11.620;2024-01-27T11:39:29;98121.09;;;14.48;45.95
46724;BME280;32463;48.298;11.620;2024-01-27T11:42:16;98123.41;;;15.17;44.93
46724;BME280;32463;48.298;11.620;2024-01-27T11:45:03;98126.38;;;16.40;43.21
46724;BME280;32463;48.298;11.620;2024-01-27T11:47:51;98117.47;;;16.50;41.06
46724;BME280;32463;48.298;11.620;2024-01-27T11:50:37;98116.94;;;15.76;41.42
46724;BME280;32463;48.298;11.620;2024-01-27T11:53:24;98115.03;;;17.01;40.40
46724;BME280;32463;48.298;11.620;2024-01-27T11:56:11;98109.50;;;17.88;38.62
46724;BME280;32463;48.298;11.620;2024-01-27T11:58:58;98108.25;;;18.33;38.21
46724;BME280;32463;48.298;11.620;2024-01-27T12:01:44;98110.25;;;18.63;37.36
46724;BME280;32463;48.298;11.620;2024-01-27T12:04:31;98112.41;;;19.23;35.98
46724;BME280;32463;48.298;11.620;2024-01-27T12:07:19;98114.34;;;20.22;35.16
46724;BME280;32463;48.298;11.620;2024-01-27T12:10:07;98100.94;;;19.00;34.86
46724;BME280;32463;48.298;11.620;2024-01-27T12:12:54;98102.00;;;18.50;35.74
46724;BME280;32463;48.298;11.620;2024-01-27T12:15:40;98097.00;;;19.04;35.10
46724;BME280;32463;48.298;11.620;2024-01-27T12:18:27;98101.41;;;19.20;34.87
46724;BME280;32463;48.298;11.620;2024-01-27T12:21:19;98099.34;;;19.38;34.01
46724;BME280;32463;48.298;11.620;2024-01-27T12:24:15;98103.06;;;17.74;36.97
46724;BME280;32463;48.298;11.620;2024-01-27T12:27:02;98101.94;;;19.07;35.97
46724;BME280;32463;48.298;11.620;2024-01-27T12:29:49;98089.53;;;19.71;33.75
46724;BME280;32463;48.298;11.620;2024-01-27T12:32:36;98092.72;;;20.72;32.90
46724;BME280;32463;48.298;11.620;2024-01-27T12:35:23;98093.69;;;19.18;33.63
46724;BME280;32463;48.298;11.620;2024-01-27T12:38:10;98087.03;;;18.91;35.54
46724;BME280;32463;48.298;11.620;2024-01-27T12:40:57;98090.09;;;19.11;34.07
46724;BME280;32463;48.298;11.620;2024-01-27T12:43:43;98073.78;;;20.39;33.54
46724;BME280;32463;48.298;11.620;2024-01-27T12:46:30;98073.41;;;21.24;31.69
46724;BME280;32463;48.298;11.620;2024-01-27T12:49:18;98075.75;;;21.19;31.76
46724;BME280;32463;48.298;11.620;2024-01-27T12:52:05;98078.63;;;21.54;31.81
46724;BME280;32463;48.298;11.620;2024-01-27T12:54:52;98065.66;;;22.09;30.26
46724;BME280;32463;48.298;11.620;2024-01-27T12:57:39;98072.13;;;21.05;31.73
46724;BME280;32463;48.298;11.620;2024-01-27T13:00:26;98059.00;;;21.12;30.69
46724;BME280;32463;48.298;11.620;2024-01-27T13:03:13;98056.19;;;19.63;32.54
46724;BME280;32463;48.298;11.620;2024-01-27T13:06:00;98066.09;;;20.67;31.94
46724;BME280;32463;48.298;11.620;2024-01-27T13:08:47;98054.69;;;21.70;30.87
46724;BME280;32463;48.298;11.620;2024-01-27T13:11:34;98042.69;;;21.52;29.88
46724;BME280;32463;48.298;11.620;2024-01-27T13:14:21;98047.41;;;19.71;31.52
46724;BME280;32463;48.298;11.620;2024-01-27T13:17:08;98054.88;;;17.67;34.60
46724;BME280;32463;48.298;11.620;2024-01-27T13:19:55;98049.75;;;19.27;34.05
46724;BME280;32463;48.298;11.620;2024-01-27T13:22:41;98047.94;;;21.02;32.33
46724;BME280;32463;48.298;11.620;2024-01-27T13:25:28;98043.38;;;21.40;30.65
46724;BME280;32463;48.298;11.620;2024-01-27T13:28:15;98047.41;;;21.93;30.16
46724;BME280;32463;48.298;11.620;2024-01-27T13:31:02;98047.06;;;22.45;30.22
46724;BME280;32463;48.298;11.620;2024-01-27T13:33:50;98042.75;;;22.72;29.07
46724;BME280;32463;48.298;11.620;2024-01-27T13:36:37;98041.94;;;22.72;29.05
46724;BME280;32463;48.298;11.620;2024-01-27T13:39:23;98051.09;;;22.69;28.68
46724;BME280;32463;48.298;11.620;2024-01-27T13:42:11;98048.56;;;21.33;29.53
46724;BME280;32463;48.298;11.620;2024-01-27T13:44:57;98041.00;;;22.02;29.69
46724;BME280;32463;48.298;11.620;2024-01-27T13:47:44;98041.19;;;22.22;28.80
46724;BME280;32463;48.298;11.620;2024-01-27T13:50:31;98045.13;;;21.90;29.10
46724;BME280;32463;48.298;11.620;2024-01-27T13:53:18;98055.81;;;21.46;29.74
46724;BME280;32463;48.298;11.620;2024-01-27T13:56:05;98058.75;;;21.22;29.63
46724;BME280;32463;48.298;11.620;2024-01-27T13:58:52;98053.53;;;21.79;29.01
46724;BME280;32463;48.298;11.620;2024-01-27T14:01:39;98051.91;;;20.68;29.36
46724;BME280;32463;48.298;11.620;2024-01-27T14:04:26;98046.44;;;20.17;30.58
46724;BME280;32463;48.298;11.620;2024-01-27T14:07:13;98038.19;;;19.75;31.35
46724;BME280;32463;48.298;11.620;2024-01-27T14:10:01;98047.53;;;18.28;32.62
46724;BME280;32463;48.298;11.620;2024-01-27T14:12:48;98046.50;;;18.53;32.53
46724;BME280;32463;48.298;11.620;2024-01-27T14:15:36;98051.09;;;18.59;33.54
46724;BME280;32463;48.298;11.620;2024-01-27T14:18:23;98056.94;;;17.13;34.59
46724;BME280;32463;48.298;11.620;2024-01-27T14:21:10;98061.63;;;18.43;33.08
46724;BME280;32463;48.298;11.620;2024-01-27T14:23:57;98051.72;;;19.64;32.18
46724;BME280;32463;48.298;11.620;2024-01-27T14:26:47;98053.00;;;20.59;30.95
46724;BME280;32463;48.298;11.620;2024-01-27T14:29:35;98058.47;;;21.02;29.51
46724;BME280;32463;48.298;11.620;2024-01-27T14:32:23;98053.97;;;20.43;30.21
46724;BME280;32463;48.298;11.620;2024-01-27T14:35:10;98048.13;;;20.10;30.36
46724;BME280;32463;48.298;11.620;2024-01-27T14:37:57;98051.69;;;20.17;30.68